MHLC/LCE METAR and TAF weather

Enter ICAO airport designator
Station Type Date Time Source
MHLC METAR 2019/08/25 14:00 UTC NOAA

MHLC 251400Z 32002KT 9999 FEW026 30/24 Q1012 A2989 NOSIG


Station Type Date Time Source
MHLC Decoded METAR 2019/08/25 14:00 UTC NOAA

Station name not available
Aug 25, 2019 - 10:00 AM EDT / 2019.08.25 1400 UTC
Wind: from the NW (320 degrees) at 2 MPH (2 KT):0
Visibility: greater than 7 mile(s):0
Sky conditions: mostly clear
Temperature: 86 F (30 C)
Heat index: 95.0 F (35.0 C):1
Dew Point: 75 F (24 C)
Relative Humidity: 70%
Pressure (altimeter): 29.89 in. Hg (1012 hPa)
ob: MHLC 251400Z 32002KT 9999 FEW026 30/24 Q1012 A2989 NOSIG
cycle: 14

Station Type Date Time Source
MHLC TAF 2019/08/25 06:29 UTC NOAA

TAF MHLC 250425Z 2506/2606 15005KT 9999 SCT024 TX33/2520Z TN24/2512Z
BECMG 2515/2517 35005KT FEW026
BECMG 2520/2522 8000 VCSH SCT026TCU SCT080
BECMG 2601/2603 9999 NSW SCT026

Example: see airport list